Time;durP1;ratioP1;P1;durP2;ratioP2;P2;SDS_P1;SDS_P2;PMS_P1;PMS_P2;Temp;Humidity;BMP_temperature;BMP_pressure;BME280_temperature;BME280_humidity;BME280_pressure;Samples;Min_cycle;Max_cycle;Signal;HPM_P1;HPM_P2
2024/01/02 00:00:58;;;;;;;465.70;232.32;;;;;;;7.11;100.00;97369.41;5031677;28;20029;-58
2024/01/02 00:03:24;;;;;;;568.13;228.63;;;;;;;7.16;100.00;97360.78;5028898;28;20025;-58
2024/01/02 00:05:49;;;;;;;477.40;219.10;;;;;;;7.39;100.00;97354.75;5029667;28;20315;-58
2024/01/02 00:08:14;;;;;;;563.08;225.57;;;;;;;7.16;100.00;97340.09;5013343;28;20099;-58
2024/01/02 00:10:40;;;;;;;454.60;223.65;;;;;;;7.27;100.00;97340.09;5034128;28;20069;-60
2024/01/02 00:13:05;;;;;;;496.15;226.70;;;;;;;7.11;100.00;97344.41;5034030;28;20043;-57
2024/01/02 00:15:30;;;;;;;456.73;217.20;;;;;;;7.15;100.00;97340.09;5032524;28;20036;-59
2024/01/02 00:17:56;;;;;;;467.70;211.57;;;;;;;7.10;100.00;97337.53;5035014;28;20025;-60
2024/01/02 00:20:21;;;;;;;545.47;216.32;;;;;;;7.22;100.00;97325.44;5035204;28;20904;-59
2024/01/02 00:22:46;;;;;;;470.08;215.88;;;;;;;7.32;100.00;97323.72;5031360;28;20021;-59
2024/01/02 00:25:12;;;;;;;496.52;230.00;;;;;;;7.33;100.00;97321.13;5031690;28;20021;-59
2024/01/02 00:27:37;;;;;;;432.83;209.20;;;;;;;7.39;100.00;97317.69;5014878;28;20021;-60
2024/01/02 00:30:03;;;;;;;456.00;219.43;;;;;;;7.16;100.00;97311.66;5035519;28;20028;-59
2024/01/02 00:32:28;;;;;;;582.53;216.75;;;;;;;7.38;100.00;97305.59;5034594;28;20126;-58
2024/01/02 00:34:54;;;;;;;482.48;223.85;;;;;;;7.32;100.00;97301.31;5032816;28;20163;-58
2024/01/02 00:37:19;;;;;;;551.95;228.82;;;;;;;7.29;100.00;97299.59;5031071;28;20713;-58
2024/01/02 00:39:44;;;;;;;455.55;210.90;;;;;;;6.88;100.00;97295.28;5032367;28;20819;-58
2024/01/02 00:42:09;;;;;;;425.73;202.85;;;;;;;7.08;100.00;97291.81;5034556;28;20041;-57
2024/01/02 00:44:35;;;;;;;419.20;204.15;;;;;;;7.08;100.00;97291.81;5031194;28;20032;-58
2024/01/02 00:47:00;;;;;;;468.08;209.43;;;;;;;7.11;100.00;97282.34;5034145;28;20049;-58
2024/01/02 00:49:25;;;;;;;603.67;216.35;;;;;;;7.01;100.00;97276.31;5031676;28;20638;-57
2024/01/02 00:51:51;;;;;;;574.35;409.92;;;;;;;7.12;100.00;97278.03;5032962;28;20059;-57
2024/01/02 00:54:16;;;;;;;664.17;241.98;;;;;;;7.12;100.00;97272.84;5030203;28;20450;-57
2024/01/02 00:56:41;;;;;;;497.38;226.75;;;;;;;7.10;100.00;97275.47;5033330;28;20060;-58
2024/01/02 00:59:07;;;;;;;444.80;217.85;;;;;;;7.07;100.00;97272.88;5033798;28;20130;-58
2024/01/02 01:01:32;;;;;;;450.67;226.65;;;;;;;6.86;100.00;97274.59;5030539;28;20301;-59
2024/01/02 01:03:57;;;;;;;507.13;241.55;;;;;;;6.86;100.00;97273.72;5030907;28;20024;-57
2024/01/02 01:06:23;;;;;;;653.83;247.18;;;;;;;6.88;100.00;97272.91;5030296;28;20302;-58
2024/01/02 01:08:48;;;;;;;555.90;283.35;;;;;;;6.82;100.00;97272.88;5029753;28;20029;-56
2024/01/02 01:11:13;;;;;;;504.95;231.60;;;;;;;6.98;100.00;97270.31;5027651;28;20029;-59
2024/01/02 01:13:39;;;;;;;503.17;228.70;;;;;;;6.96;100.00;97274.59;5029337;28;20044;-58
2024/01/02 01:16:04;;;;;;;498.92;220.73;;;;;;;6.97;100.00;97268.56;5030453;28;20097;-59
2024/01/02 01:18:30;;;;;;;602.28;214.10;;;;;;;7.07;100.00;97259.94;5029889;28;20025;-59
2024/01/02 01:20:56;;;;;;;473.15;229.60;;;;;;;7.22;100.00;97253.91;5028145;28;20419;-58
2024/01/02 01:23:21;;;;;;;632.10;236.93;;;;;;;7.07;100.00;97249.59;5028421;28;20103;-59
2024/01/02 01:25:47;;;;;;;529.47;232.30;;;;;;;6.97;100.00;97247.88;5027037;28;20448;-59
2024/01/02 01:28:12;;;;;;;483.30;216.77;;;;;;;7.02;100.00;97257.34;5030101;28;20387;-57
2024/01/02 01:30:38;;;;;;;493.17;230.80;;;;;;;7.05;100.00;97253.06;5028407;28;20037;-60
2024/01/02 01:33:04;;;;;;;542.47;249.80;;;;;;;7.07;100.00;97244.44;5030747;28;20053;-58
2024/01/02 01:35:29;;;;;;;619.45;253.85;;;;;;;7.07;100.00;97239.25;5029780;28;20048;-58
2024/01/02 01:37:54;;;;;;;520.40;230.57;;;;;;;7.18;100.00;97236.66;5030460;28;20013;-60
2024/01/02 01:40:20;;;;;;;633.50;228.45;;;;;;;7.11;100.00;97222.00;5028328;28;20046;-59
2024/01/02 01:42:45;;;;;;;506.48;232.45;;;;;;;7.10;100.00;97223.75;5031791;28;20014;-58
2024/01/02 01:45:10;;;;;;;493.73;233.27;;;;;;;7.04;100.00;97223.75;5031273;28;20037;-56
2024/01/02 01:47:36;;;;;;;505.92;217.68;;;;;;;7.10;100.00;97221.16;5028339;28;20036;-58
2024/01/02 01:50:02;;;;;;;494.27;221.68;;;;;;;7.33;100.00;97220.25;5030922;28;20040;-58
2024/01/02 01:52:32;;;;;;;597.97;243.57;;;;;;;7.13;100.00;97217.72;5031417;28;20037;-57
2024/01/02 01:54:58;;;;;;;502.33;221.60;;;;;;;7.07;100.00;97215.13;5032582;28;20048;-58
2024/01/02 01:57:23;;;;;;;605.65;223.05;;;;;;;7.12;100.00;97218.56;5032378;28;20044;-57
2024/01/02 01:59:49;;;;;;;509.63;224.90;;;;;;;7.24;100.00;97213.34;5034379;28;20020;-58
2024/01/02 02:02:14;;;;;;;530.42;227.93;;;;;;;7.26;100.00;97205.59;5034306;28;20037;-59
2024/01/02 02:04:44;;;;;;;492.38;227.73;;;;;;;7.33;100.00;97199.56;5030780;28;20328;-56
2024/01/02 02:07:11;;;;;;;499.98;229.93;;;;;;;7.24;100.00;97207.34;5033633;28;20107;-57
2024/01/02 02:09:36;;;;;;;489.00;230.75;;;;;;;7.24;100.00;97197.00;5031131;28;20033;-57
2024/01/02 02:12:02;;;;;;;524.13;236.18;;;;;;;7.29;100.00;97201.28;5032909;28;20033;-59
2024/01/02 02:14:27;;;;;;;699.67;248.55;;;;;;;7.07;100.00;97197.03;5030277;28;20029;-59
2024/01/02 02:16:53;;;;;;;523.20;224.13;;;;;;;7.14;100.00;97191.84;5032284;28;20036;-56
2024/01/02 02:19:18;;;;;;;584.78;226.75;;;;;;;7.13;100.00;97189.25;5030815;28;20152;-62
2024/01/02 02:21:46;;;;;;;513.75;229.77;;;;;;;7.01;100.00;97191.00;5032647;28;20033;-57
2024/01/02 02:24:12;;;;;;;533.58;232.15;;;;;;;7.23;100.00;97179.72;5031033;28;20480;-57
2024/01/02 02:26:37;;;;;;;544.22;235.65;;;;;;;7.19;100.00;97178.88;5030720;28;20144;-56
2024/01/02 02:29:03;;;;;;;510.85;241.43;;;;;;;7.11;100.00;97178.94;5033182;28;20468;-59
2024/01/02 02:31:28;;;;;;;622.63;235.70;;;;;;;6.88;100.00;97169.50;5030628;28;20077;-57
2024/01/02 02:33:53;;;;;;;555.67;229.40;;;;;;;7.01;100.00;97172.03;5031730;28;20483;-57
2024/01/02 02:36:18;;;;;;;525.38;237.77;;;;;;;6.88;100.00;97161.75;5029733;28;20405;-57
2024/01/02 02:38:44;;;;;;;538.13;242.10;;;;;;;7.13;100.00;97163.41;5032407;28;20401;-59
2024/01/02 02:41:10;;;;;;;509.05;230.32;;;;;;;7.20;100.00;97162.50;5031779;28;20088;-56
2024/01/02 02:43:35;;;;;;;618.83;238.52;;;;;;;7.22;100.00;97154.75;5030526;28;20086;-57
2024/01/02 02:46:01;;;;;;;502.30;246.98;;;;;;;7.16;100.00;97159.06;5033447;28;20090;-56
2024/01/02 02:48:26;;;;;;;703.38;362.88;;;;;;;6.99;100.00;97160.84;5030281;28;20086;-59
2024/01/02 02:50:51;;;;;;;555.35;251.20;;;;;;;6.98;100.00;97159.97;5024732;28;20033;-58
2024/01/02 02:53:17;;;;;;;528.67;238.00;;;;;;;7.01;100.00;97154.81;5032449;28;20020;-59
2024/01/02 02:55:42;;;;;;;521.63;238.95;;;;;;;6.90;100.00;97152.25;5030482;28;20044;-60
2024/01/02 02:58:07;;;;;;;524.58;230.88;;;;;;;7.05;100.00;97140.13;5031913;28;20103;-57
2024/01/02 03:00:34;;;;;;;598.45;267.58;;;;;;;6.99;100.00;97140.16;5011193;28;20033;-57
2024/01/02 03:03:00;;;;;;;556.95;230.98;;;;;;;6.88;100.00;97141.06;5032170;28;20127;-59
2024/01/02 03:05:25;;;;;;;624.38;236.52;;;;;;;6.92;100.00;97133.28;5030335;28;20037;-59
2024/01/02 03:07:51;;;;;;;508.63;225.85;;;;;;;6.88;100.00;97127.28;5031607;28;20466;-59
2024/01/02 03:10:17;;;;;;;514.17;237.30;;;;;;;6.96;100.00;97127.25;5012834;28;20043;-57
2024/01/02 03:12:44;;;;;;;485.85;231.57;;;;;;;6.72;100.00;97123.88;5031897;28;20583;-59
2024/01/02 03:15:09;;;;;;;437.98;207.27;;;;;;;6.67;100.00;97110.94;5031046;28;20017;-57
2024/01/02 03:17:35;;;;;;;587.67;258.20;;;;;;;6.60;100.00;97112.69;5029102;28;20029;-58
2024/01/02 03:20:00;;;;;;;522.92;271.95;;;;;;;6.44;100.00;97098.06;5030871;28;20491;-57
2024/01/02 03:22:25;;;;;;;559.85;298.27;;;;;;;6.23;100.00;97099.78;5031016;28;20588;-57
2024/01/02 03:24:51;;;;;;;581.60;362.30;;;;;;;6.13;100.00;97093.78;5031856;28;20041;-57
2024/01/02 03:27:16;;;;;;;535.88;257.73;;;;;;;6.12;100.00;97085.16;5030192;28;20498;-59
2024/01/02 03:29:42;;;;;;;456.20;217.05;;;;;;;6.09;100.00;97089.47;5012488;28;20033;-59
2024/01/02 03:32:07;;;;;;;489.63;227.35;;;;;;;5.97;100.00;97085.13;5031005;28;20033;-57
2024/01/02 03:34:37;;;;;;;611.33;231.98;;;;;;;6.11;100.00;97073.13;5030870;28;20083;-57
2024/01/02 03:37:03;;;;;;;499.02;282.23;;;;;;;5.92;100.00;97066.19;5031162;28;20255;-58
2024/01/02 03:39:29;;;;;;;787.05;456.30;;;;;;;5.94;100.00;97055.00;5028953;28;20079;-57
2024/01/02 03:41:54;;;;;;;593.78;381.23;;;;;;;5.79;100.00;97058.44;5030792;28;20112;-57
2024/01/02 03:44:19;;;;;;;586.63;275.95;;;;;;;5.72;100.00;97046.41;5030441;28;20040;-58
2024/01/02 03:46:45;;;;;;;463.23;222.82;;;;;;;5.42;100.00;97033.47;5030022;28;20304;-58
2024/01/02 03:49:10;;;;;;;526.22;312.55;;;;;;;5.49;100.00;97024.03;5031185;28;20032;-57
2024/01/02 03:51:36;;;;;;;588.42;252.57;;;;;;;5.62;100.00;97024.03;5027147;28;20037;-57
2024/01/02 03:54:01;;;;;;;442.23;211.02;;;;;;;5.58;100.00;97023.19;5030537;28;20043;-56
2024/01/02 03:56:26;;;;;;;603.05;280.92;;;;;;;5.63;100.00;97011.16;5027670;28;20033;-58
2024/01/02 03:58:52;;;;;;;539.63;282.27;;;;;;;5.71;100.00;97009.44;5030960;28;20678;-57
2024/01/02 04:01:17;;;;;;;636.60;474.65;;;;;;;5.62;100.00;97000.81;5028987;28;20501;-58
2024/01/02 04:03:43;;;;;;;653.80;430.92;;;;;;;5.59;100.00;96999.97;5029703;28;20026;-58
2024/01/02 04:06:08;;;;;;;488.45;235.50;;;;;;;5.67;100.00;96994.81;5029392;28;20053;-57
2024/01/02 04:08:37;;;;;;;542.53;280.42;;;;;;;5.71;100.00;96988.78;5029988;28;20451;-57
2024/01/02 04:11:03;;;;;;;489.77;239.70;;;;;;;5.74;100.00;96985.34;5030116;28;20092;-56
2024/01/02 04:13:28;;;;;;;595.60;242.70;;;;;;;5.78;100.00;96981.03;5029354;28;20034;-57
2024/01/02 04:15:53;;;;;;;459.38;247.45;;;;;;;5.79;100.00;96975.88;5032639;28;20068;-57
2024/01/02 04:18:18;;;;;;;538.10;299.63;;;;;;;5.80;100.00;96976.75;5030011;28;20031;-58
2024/01/02 04:20:44;;;;;;;513.88;250.70;;;;;;;5.74;100.00;96972.44;5027768;28;20041;-56
2024/01/02 04:23:09;;;;;;;519.13;268.38;;;;;;;5.74;100.00;96975.03;5031453;28;20025;-57
2024/01/02 04:25:34;;;;;;;599.42;242.73;;;;;;;5.75;100.00;96966.41;5026939;28;20064;-58
2024/01/02 04:28:00;;;;;;;503.50;247.00;;;;;;;5.81;100.00;96969.00;5030516;28;20031;-57
2024/01/02 04:30:25;;;;;;;496.88;232.18;;;;;;;5.81;100.00;96966.44;5029405;28;20020;-56
2024/01/02 04:32:51;;;;;;;583.35;343.27;;;;;;;5.62;100.00;96954.38;5029381;28;20102;-57
2024/01/02 04:35:17;;;;;;;507.40;248.52;;;;;;;5.79;100.00;96949.22;5029340;28;20063;-57
2024/01/02 04:37:43;;;;;;;516.85;233.02;;;;;;;5.77;100.00;96956.09;5032136;28;20020;-58
2024/01/02 04:40:12;;;;;;;496.60;273.55;;;;;;;5.72;100.00;96938.91;5028134;28;20032;-57
2024/01/02 04:42:39;;;;;;;550.75;239.90;;;;;;;5.83;100.00;96941.47;5027144;28;20448;-55
2024/01/02 04:45:05;;;;;;;482.98;244.07;;;;;;;5.79;100.00;96934.59;5030279;28;20186;-57
2024/01/02 04:47:30;;;;;;;523.83;243.77;;;;;;;5.83;100.00;96922.56;5029265;28;20029;-57
2024/01/02 04:49:55;;;;;;;632.60;439.23;;;;;;;5.72;100.00;96926.00;5028394;28;20136;-57
2024/01/02 04:52:21;;;;;;;503.35;267.70;;;;;;;5.68;100.00;96903.66;5030279;28;20040;-58
2024/01/02 04:54:48;;;;;;;533.45;279.17;;;;;;;5.74;100.00;96915.69;5026953;28;20048;-57
2024/01/02 04:57:13;;;;;;;483.40;224.98;;;;;;;5.88;100.00;96909.63;5027414;28;20552;-58
2024/01/02 04:59:39;;;;;;;686.63;433.60;;;;;;;5.69;100.00;96895.06;5008471;28;20087;-56
2024/01/02 05:02:05;;;;;;;491.65;229.27;;;;;;;5.84;100.00;96886.44;5010738;28;20028;-58
2024/01/02 05:04:30;;;;;;;593.75;259.58;;;;;;;5.77;100.00;96889.88;5024915;28;20035;-56
2024/01/02 05:06:55;;;;;;;493.45;231.23;;;;;;;5.80;100.00;96874.41;5029695;28;20041;-58
2024/01/02 05:09:21;;;;;;;560.80;227.65;;;;;;;5.80;100.00;96868.38;5030556;28;20547;-56
2024/01/02 05:11:48;;;;;;;483.00;219.48;;;;;;;5.58;100.00;96861.56;5028652;28;20041;-57
2024/01/02 05:14:14;;;;;;;488.23;225.95;;;;;;;5.78;100.00;96855.47;5031123;28;20283;-56
2024/01/02 05:16:40;;;;;;;541.50;227.18;;;;;;;5.79;100.00;96851.19;5029221;28;20037;-57
2024/01/02 05:19:05;;;;;;;502.00;223.40;;;;;;;5.70;100.00;96846.88;5029664;28;20460;-58
2024/01/02 05:21:31;;;;;;;518.78;225.77;;;;;;;5.57;100.00;96833.19;5028709;28;20037;-57
2024/01/02 05:23:56;;;;;;;536.67;326.35;;;;;;;5.54;100.00;96834.03;5031132;28;20131;-58
2024/01/02 05:26:21;;;;;;;503.15;218.45;;;;;;;5.60;100.00;96820.25;5033814;28;20545;-55
2024/01/02 05:28:47;;;;;;;457.50;237.32;;;;;;;5.55;100.00;96814.25;5032293;28;20052;-57
2024/01/02 05:31:12;;;;;;;570.58;343.02;;;;;;;5.37;100.00;96802.25;5032767;28;20036;-58
2024/01/02 05:33:37;;;;;;;532.58;225.95;;;;;;;5.31;100.00;96796.25;5031578;28;20041;-56
2024/01/02 05:36:03;;;;;;;467.35;217.50;;;;;;;5.23;100.00;96786.81;5032877;28;20062;-58
2024/01/02 05:38:28;;;;;;;492.42;301.10;;;;;;;5.17;100.00;96774.78;5033213;28;20067;-55
2024/01/02 05:40:54;;;;;;;524.72;319.73;;;;;;;5.24;100.00;96785.97;5032560;28;20781;-57
2024/01/02 05:43:19;;;;;;;470.85;228.48;;;;;;;5.19;100.00;96784.25;5026965;28;20021;-60
2024/01/02 05:45:44;;;;;;;580.47;227.70;;;;;;;5.20;100.00;96795.41;5022767;28;20048;-57
2024/01/02 05:48:10;;;;;;;475.42;223.65;;;;;;;5.41;100.00;96783.34;5027266;28;20032;-56
2024/01/02 05:50:35;;;;;;;552.15;247.32;;;;;;;5.25;100.00;96775.66;5022645;28;20041;-58
2024/01/02 05:53:00;;;;;;;485.85;213.10;;;;;;;5.27;100.00;96766.16;5033380;28;20499;-57
2024/01/02 05:55:26;;;;;;;474.02;212.95;;;;;;;5.57;100.00;96754.06;5031680;28;20104;-57
2024/01/02 05:57:51;;;;;;;480.70;222.35;;;;;;;5.44;100.00;96747.22;5030846;28;20048;-58
2024/01/02 06:00:17;;;;;;;472.83;215.23;;;;;;;5.52;100.00;96748.06;5032945;28;20463;-59
2024/01/02 06:02:42;;;;;;;554.20;216.02;;;;;;;5.36;100.00;96730.91;5029579;28;20135;-59
2024/01/02 06:05:08;;;;;;;490.90;224.98;;;;;;;5.51;100.00;96712.84;5031806;28;20038;-59
2024/01/02 06:07:33;;;;;;;532.53;224.18;;;;;;;5.65;100.00;96711.91;5031680;28;20098;-59
2024/01/02 06:09:59;;;;;;;498.85;214.23;;;;;;;5.75;100.00;96716.16;5031679;28;20488;-59
2024/01/02 06:12:24;;;;;;;492.45;210.73;;;;;;;5.65;100.00;96712.78;5034140;28;20556;-58
2024/01/02 06:14:50;;;;;;;495.92;216.40;;;;;;;5.58;100.00;96706.78;5032075;28;20629;-57
2024/01/02 06:17:15;;;;;;;509.85;196.68;;;;;;;5.71;100.00;96696.41;5030767;28;20123;-55
2024/01/02 06:19:40;;;;;;;545.15;204.07;;;;;;;5.44;100.00;96700.81;5031975;28;20037;-56
2024/01/02 06:22:06;;;;;;;462.02;197.80;;;;;;;5.67;100.00;96702.44;5030628;28;20021;-56
2024/01/02 06:24:31;;;;;;;482.80;210.98;;;;;;;5.72;100.00;96706.72;5030932;28;20135;-56
2024/01/02 06:26:57;;;;;;;493.75;212.07;;;;;;;5.79;100.00;96692.06;5031384;28;20044;-58
2024/01/02 06:29:22;;;;;;;559.78;211.52;;;;;;;5.91;100.00;96703.19;5032146;28;20124;-58
2024/01/02 06:31:47;;;;;;;540.97;210.05;;;;;;;6.07;100.00;96701.41;5030723;28;20036;-55
2024/01/02 06:34:13;;;;;;;498.55;217.88;;;;;;;5.96;100.00;96693.69;5031698;28;20612;-55
2024/01/02 06:36:38;;;;;;;620.35;220.90;;;;;;;5.86;100.00;96692.88;5030436;28;20492;-57
2024/01/02 06:39:04;;;;;;;521.00;222.88;;;;;;;5.94;100.00;96692.84;5032194;28;20028;-58
2024/01/02 06:41:29;;;;;;;503.13;215.65;;;;;;;5.99;100.00;96693.69;5012517;28;20489;-56
2024/01/02 06:43:54;;;;;;;554.85;213.35;;;;;;;6.32;100.00;96694.38;5030128;28;20549;-58
2024/01/02 06:46:20;;;;;;;521.08;208.75;;;;;;;6.40;100.00;96690.84;5023539;28;20072;-54
2024/01/02 06:48:45;;;;;;;577.83;211.52;;;;;;;6.29;100.00;96688.34;5030785;28;20036;-55
2024/01/02 06:51:11;;;;;;;513.17;209.88;;;;;;;5.79;100.00;96692.06;5028867;28;20068;-56
2024/01/02 06:53:36;;;;;;;591.90;212.18;;;;;;;6.05;100.00;96685.91;5032204;28;20036;-57
2024/01/02 06:56:03;;;;;;;480.67;200.82;;;;;;;5.35;100.00;96688.84;5032081;28;20045;-56
2024/01/02 06:58:28;;;;;;;481.70;195.48;;;;;;;5.01;100.00;96692.34;5032865;28;20040;-54
2024/01/02 07:00:53;;;;;;;518.97;207.95;;;;;;;5.00;100.00;96698.34;5010235;28;20373;-56
2024/01/02 07:03:21;;;;;;;488.88;210.65;;;;;;;4.90;100.00;96682.06;5030825;28;20021;-57
2024/01/02 07:05:46;;;;;;;577.75;214.05;;;;;;;4.96;100.00;96691.50;5026560;28;20451;-58
2024/01/02 07:08:12;;;;;;;512.13;209.52;;;;;;;5.11;100.00;96676.84;5031760;28;20044;-59
2024/01/02 07:10:37;;;;;;;532.88;222.60;;;;;;;5.10;100.00;96682.88;5027996;28;20384;-58
2024/01/02 07:13:02;;;;;;;551.67;216.55;;;;;;;4.92;100.00;96677.78;5033099;28;20393;-59
2024/01/02 07:15:28;;;;;;;474.33;217.85;;;;;;;5.02;100.00;96651.97;5030286;28;20468;-57
2024/01/02 07:17:53;;;;;;;501.17;219.65;;;;;;;5.16;100.00;96665.66;5024838;28;21716;-57
2024/01/02 07:20:20;;;;;;;548.95;227.13;;;;;;;5.32;100.00;96671.66;5018012;28;20441;-55
2024/01/02 07:22:45;;;;;;;587.30;218.90;;;;;;;5.32;100.00;96666.50;5020440;28;20075;-56
2024/01/02 07:25:11;;;;;;;537.78;265.77;;;;;;;5.47;100.00;96633.75;5012517;28;20096;-56
2024/01/02 07:27:37;;;;;;;558.00;227.25;;;;;;;5.43;100.00;96624.31;5031633;28;20426;-58
2024/01/02 07:30:04;;;;;;;498.42;223.57;;;;;;;5.37;100.00;96632.94;5030543;28;20520;-56
2024/01/02 07:32:29;;;;;;;443.30;217.98;;;;;;;5.44;100.00;96656.97;5021764;28;20414;-56
2024/01/02 07:34:55;;;;;;;528.67;221.48;;;;;;;5.46;100.00;96626.91;5028137;28;20262;-58
2024/01/02 07:37:20;;;;;;;505.80;222.75;;;;;;;5.45;100.00;96631.19;5031472;28;20075;-56
2024/01/02 07:39:45;;;;;;;541.92;221.25;;;;;;;5.53;100.00;96653.50;5030947;28;20127;-58
2024/01/02 07:42:12;;;;;;;538.97;221.60;;;;;;;5.56;100.00;96644.03;5029380;28;20025;-57
2024/01/02 07:44:38;;;;;;;499.50;222.27;;;;;;;5.68;100.00;96632.78;5029360;28;20025;-59
2024/01/02 07:47:03;;;;;;;517.25;216.90;;;;;;;5.71;100.00;96619.88;5022318;28;20034;-56
2024/01/02 07:49:29;;;;;;;605.22;223.90;;;;;;;5.86;100.00;96611.19;5027225;28;20028;-56
2024/01/02 07:51:54;;;;;;;594.60;215.55;;;;;;;5.68;100.00;96621.63;5029152;28;20136;-59
2024/01/02 07:54:20;;;;;;;530.80;217.43;;;;;;;5.85;100.00;96621.50;5028919;28;20393;-58
2024/01/02 07:56:46;;;;;;;632.65;230.10;;;;;;;5.89;100.00;96617.16;5027875;28;20039;-57
2024/01/02 07:59:15;;;;;;;478.20;215.10;;;;;;;5.76;100.00;96595.78;5034271;28;20122;-58
2024/01/02 08:01:40;;;;;;;497.23;221.63;;;;;;;5.62;100.00;96590.69;5029315;28;20033;-56
2024/01/02 08:04:06;;;;;;;475.50;218.25;;;;;;;5.64;100.00;96592.38;5030411;28;20033;-56
2024/01/02 08:06:31;;;;;;;462.30;210.32;;;;;;;5.65;100.00;96606.16;5028271;28;20234;-58
2024/01/02 08:08:56;;;;;;;497.35;211.80;;;;;;;5.65;100.00;96575.19;5023742;28;20096;-57
2024/01/02 08:11:22;;;;;;;501.02;219.25;;;;;;;5.73;100.00;96565.69;5021236;28;20070;-57
2024/01/02 08:13:47;;;;;;;560.05;214.05;;;;;;;5.58;100.00;96577.84;5026582;28;20478;-59
2024/01/02 08:16:12;;;;;;;471.13;207.48;;;;;;;5.63;100.00;96595.84;5031684;28;20071;-56
2024/01/02 08:18:40;;;;;;;551.33;224.07;;;;;;;5.72;100.00;96571.72;5028986;28;20021;-56
2024/01/02 08:21:07;;;;;;;539.03;228.18;;;;;;;5.89;100.00;96575.88;5028914;28;20049;-55
2024/01/02 08:23:33;;;;;;;476.13;251.82;;;;;;;6.03;100.00;96571.53;5031879;28;20065;-57
2024/01/02 08:25:58;;;;;;;547.92;212.27;;;;;;;5.95;100.00;96574.13;5028420;28;20148;-56
2024/01/02 08:28:23;;;;;;;472.38;199.68;;;;;;;6.06;100.00;96576.66;5003998;28;20754;-57
2024/01/02 08:30:49;;;;;;;542.50;203.50;;;;;;;6.17;100.00;96579.16;5029824;28;20492;-58
2024/01/02 08:33:14;;;;;;;481.98;205.75;;;;;;;6.08;100.00;96574.03;5029947;28;20323;-58
2024/01/02 08:35:39;;;;;;;493.70;207.15;;;;;;;6.06;100.00;96589.56;5028614;28;20872;-56
2024/01/02 08:38:05;;;;;;;498.02;206.38;;;;;;;6.19;100.00;96574.81;5032103;28;20479;-56
2024/01/02 08:40:30;;;;;;;506.33;207.45;;;;;;;6.19;100.00;96572.25;5010863;28;20045;-59
2024/01/02 08:42:56;;;;;;;595.92;218.13;;;;;;;6.21;100.00;96579.97;5029752;28;20019;-56
2024/01/02 08:45:21;;;;;;;482.10;208.13;;;;;;;6.21;100.00;96585.13;5030904;28;20518;-58
2024/01/02 08:47:46;;;;;;;579.95;219.13;;;;;;;6.15;100.00;96582.59;5028099;28;20584;-57
2024/01/02 08:50:11;;;;;;;453.65;211.57;;;;;;;6.00;100.00;96581.81;5029829;28;20060;-58
2024/01/02 08:52:37;;;;;;;473.13;211.88;;;;;;;6.18;100.00;96575.69;5030875;28;20056;-57
2024/01/02 08:55:03;;;;;;;530.30;217.68;;;;;;;6.38;100.00;96564.31;5027778;28;20040;-59
2024/01/02 08:57:29;;;;;;;503.33;220.05;;;;;;;6.38;100.00;96577.22;5029060;28;20047;-57
2024/01/02 08:59:54;;;;;;;572.22;235.55;;;;;;;6.43;100.00;96562.56;5029423;28;20045;-56
2024/01/02 09:02:20;;;;;;;527.75;234.95;;;;;;;6.34;100.00;96568.66;5025498;28;20518;-58
2024/01/02 09:04:45;;;;;;;521.10;220.13;;;;;;;6.42;100.00;96566.00;5028796;28;20025;-55
2024/01/02 09:07:10;;;;;;;458.30;220.15;;;;;;;6.36;100.00;96569.53;5032344;28;20036;-57
2024/01/02 09:09:36;;;;;;;514.60;227.15;;;;;;;6.46;100.00;96564.25;5031475;28;20049;-56
2024/01/02 09:12:02;;;;;;;479.33;225.25;;;;;;;6.32;100.00;96566.97;5032759;28;20114;-58
2024/01/02 09:14:28;;;;;;;508.40;223.23;;;;;;;6.35;100.00;96565.22;5033318;28;20029;-59
2024/01/02 09:16:54;;;;;;;590.13;226.07;;;;;;;6.44;100.00;96560.81;5031466;28;20385;-57
2024/01/02 09:19:19;;;;;;;542.50;224.57;;;;;;;6.64;100.00;96555.44;5031115;28;20266;-57
2024/01/02 09:21:44;;;;;;;530.95;228.75;;;;;;;6.64;100.00;96564.06;5030537;28;20121;-58
2024/01/02 09:24:13;;;;;;;491.63;227.18;;;;;;;6.61;100.00;96565.84;5032205;28;20047;-58
2024/01/02 09:26:40;;;;;;;441.95;224.32;;;;;;;6.64;100.00;96564.06;5034649;28;20064;-57
2024/01/02 09:29:05;;;;;;;511.50;222.05;;;;;;;6.66;100.00;96560.59;5030001;28;20028;-58
2024/01/02 09:31:32;;;;;;;479.13;224.70;;;;;;;6.68;100.00;96561.47;5030853;28;20048;-57
2024/01/02 09:33:57;;;;;;;605.92;226.80;;;;;;;6.75;100.00;96555.31;5030166;28;20977;-59
2024/01/02 09:36:23;;;;;;;485.45;227.20;;;;;;;6.97;100.00;96557.66;5035065;28;20613;-59
2024/01/02 09:38:48;;;;;;;570.80;236.30;;;;;;;6.85;100.00;96566.44;5033360;28;20562;-58
2024/01/02 09:41:28;;;;;;;476.48;231.93;;;;;;;6.91;100.00;96556.03;5031882;28;20040;-59
2024/01/02 09:44:19;;;;;;;666.58;244.02;;;;;;;6.92;100.00;96552.56;5031548;28;20051;-60
2024/01/02 09:47:06;;;;;;;501.77;230.98;;;;;;;6.85;100.00;96558.66;5024668;28;20041;-59
2024/01/02 09:49:57;;;;;;;542.15;226.77;;;;;;;6.90;100.00;96562.06;5032554;28;20488;-58
2024/01/02 09:52:34;;;;;;;504.75;237.20;;;;;;;6.89;100.00;96568.09;4987271;28;20036;-57
2024/01/02 09:55:17;;;;;;;551.47;242.60;;;;;;;7.08;100.00;96558.41;5032101;28;20040;-57
2024/01/02 09:58:02;;;;;;;480.17;242.57;;;;;;;7.02;100.00;96554.16;5034881;28;20475;-57
2024/01/02 10:00:44;;;;;;;473.50;233.45;;;;;;;7.03;100.00;96565.34;5034126;28;20503;-58
2024/01/02 10:03:39;;;;;;;471.33;246.43;;;;;;;5.91;100.00;96569.88;5034031;28;20100;-57
2024/01/02 10:06:14;;;;;;;487.23;257.55;;;;;;;5.69;100.00;96561.41;5001126;28;20044;-58
2024/01/02 10:09:10;;;;;;;438.35;246.82;;;;;;;5.78;100.00;96563.94;5034158;28;20017;-58
2024/01/02 10:12:10;;;;;;;439.17;253.23;;;;;;;5.81;100.00;96556.19;5035831;28;20033;-57
2024/01/02 10:15:06;;;;;;;451.98;251.57;;;;;;;5.84;100.00;96556.16;5039086;28;20091;-56
2024/01/02 10:17:58;;;;;;;465.17;249.23;;;;;;;5.92;100.00;96553.50;5038101;28;20045;-57
2024/01/02 10:20:45;;;;;;;527.83;254.23;;;;;;;5.97;100.00;96551.75;5027851;28;20139;-58
2024/01/02 10:23:17;;;;;;;498.30;255.98;;;;;;;5.95;100.00;96547.47;5035887;28;20501;-58
2024/01/02 10:25:42;;;;;;;498.55;253.02;;;;;;;6.00;100.00;96545.69;5034169;28;20519;-58
2024/01/02 10:28:14;;;;;;;497.30;255.85;;;;;;;6.07;100.00;96541.38;5034368;28;20297;-56
2024/01/02 10:30:56;;;;;;;510.95;252.98;;;;;;;6.18;100.00;96544.72;5034184;28;20040;-56
2024/01/02 10:33:33;;;;;;;509.60;231.75;;;;;;;6.76;100.00;96544.16;5033891;28;20074;-59
2024/01/02 10:36:04;;;;;;;539.67;229.55;;;;;;;6.89;100.00;96540.53;5031562;28;20110;-56
2024/01/02 10:38:48;;;;;;;463.98;223.48;;;;;;;7.12;100.00;96539.38;5036362;28;20607;-57
2024/01/02 10:41:25;;;;;;;486.88;223.60;;;;;;;7.24;100.00;96538.34;5035535;28;20040;-59
2024/01/02 10:44:08;;;;;;;556.63;237.45;;;;;;;7.25;100.00;96534.06;5016536;28;20841;-57
2024/01/02 10:46:43;;;;;;;491.85;226.50;;;;;;;7.31;100.00;96541.72;5035439;28;20037;-58
2024/01/02 10:49:20;;;;;;;486.45;234.32;;;;;;;7.35;100.00;96540.81;5033915;28;20381;-58
2024/01/02 10:52:22;;;;;;;525.42;235.27;;;;;;;7.42;100.00;96533.81;5008379;28;20037;-58
2024/01/02 10:54:58;;;;;;;504.88;232.75;;;;;;;7.50;100.00;96533.72;4988337;28;20036;-59
2024/01/02 10:57:34;;;;;;;494.50;223.68;;;;;;;7.41;100.00;96527.81;5032193;28;20037;-59
2024/01/02 11:00:07;;;;;;;605.85;241.43;;;;;;;7.50;100.00;96524.22;5032880;28;20017;-57
2024/01/02 11:02:51;;;;;;;506.65;244.27;;;;;;;7.52;100.00;96527.66;5034919;28;20032;-58